sensor_id;sensor_type;location;lat;lon;timestamp;temperature;humidity
22623;DHT22;11478;51.094;7.030;2023-05-16T00:00:34;11.60;99.90
22623;DHT22;11478;51.094;7.030;2023-05-16T00:03:02;11.60;99.90
22623;DHT22;11478;51.094;7.030;2023-05-16T00:05:28;11.70;99.90
22623;DHT22;11478;51.094;7.030;2023-05-16T00:07:55;11.60;99.90
22623;DHT22;11478;51.094;7.030;2023-05-16T00:10:20;11.60;99.90
22623;DHT22;11478;51.094;7.030;2023-05-16T00:12:46;11.50;99.90
22623;DHT22;11478;51.094;7.030;2023-05-16T00:15:16;11.50;99.90
22623;DHT22;11478;51.094;7.030;2023-05-16T00:17:58;11.40;99.90
22623;DHT22;11478;51.094;7.030;2023-05-16T00:20:27;11.40;99.90
22623;DHT22;11478;51.094;7.030;2023-05-16T00:23:00;11.40;99.90
22623;DHT22;11478;51.094;7.030;2023-05-16T00:25:26;11.40;99.90
22623;DHT22;11478;51.094;7.030;2023-05-16T00:27:53;11.30;99.90
22623;DHT22;11478;51.094;7.030;2023-05-16T00:30:19;11.30;99.90
22623;DHT22;11478;51.094;7.030;2023-05-16T00:32:44;11.30;99.90
22623;DHT22;11478;51.094;7.030;2023-05-16T00:35:11;11.30;99.90
22623;DHT22;11478;51.094;7.030;2023-05-16T00:37:38;11.30;99.90
22623;DHT22;11478;51.094;7.030;2023-05-16T00:40:06;11.30;99.90
22623;DHT22;11478;51.094;7.030;2023-05-16T00:42:32;11.30;99.90
22623;DHT22;11478;51.094;7.030;2023-05-16T00:45:06;11.20;99.90
22623;DHT22;11478;51.094;7.030;2023-05-16T00:47:32;11.10;99.90
22623;DHT22;11478;51.094;7.030;2023-05-16T00:49:58;11.00;99.90
22623;DHT22;11478;51.094;7.030;2023-05-16T00:52:25;11.00;99.90
22623;DHT22;11478;51.094;7.030;2023-05-16T00:55:04;10.90;99.90
22623;DHT22;11478;51.094;7.030;2023-05-16T00:57:31;10.90;99.90
22623;DHT22;11478;51.094;7.030;2023-05-16T00:59:57;10.80;99.90
22623;DHT22;11478;51.094;7.030;2023-05-16T01:02:23;10.80;99.90
22623;DHT22;11478;51.094;7.030;2023-05-16T01:05:03;10.80;99.90
22623;DHT22;11478;51.094;7.030;2023-05-16T01:07:33;10.80;99.90
22623;DHT22;11478;51.094;7.030;2023-05-16T01:10:02;10.70;99.90
22623;DHT22;11478;51.094;7.030;2023-05-16T01:12:30;10.60;99.90
22623;DHT22;11478;51.094;7.030;2023-05-16T01:15:10;10.50;99.90
22623;DHT22;11478;51.094;7.030;2023-05-16T01:18:09;10.50;99.90
22623;DHT22;11478;51.094;7.030;2023-05-16T01:28:55;10.30;99.90
22623;DHT22;11478;51.094;7.030;2023-05-16T01:31:21;10.30;99.90
22623;DHT22;11478;51.094;7.030;2023-05-16T01:33:56;10.30;99.90
22623;DHT22;11478;51.094;7.030;2023-05-16T01:36:51;10.30;99.90
22623;DHT22;11478;51.094;7.030;2023-05-16T01:39:40;10.40;99.90
22623;DHT22;11478;51.094;7.030;2023-05-16T01:42:18;10.30;99.90
22623;DHT22;11478;51.094;7.030;2023-05-16T01:47:20;10.30;99.90
22623;DHT22;11478;51.094;7.030;2023-05-16T01:50:14;10.30;99.90
22623;DHT22;11478;51.094;7.030;2023-05-16T01:58:09;10.20;99.90
22623;DHT22;11478;51.094;7.030;2023-05-16T02:00:42;10.20;99.90
22623;DHT22;11478;51.094;7.030;2023-05-16T02:03:08;10.20;99.90
22623;DHT22;11478;51.094;7.030;2023-05-16T02:05:34;10.20;99.90
22623;DHT22;11478;51.094;7.030;2023-05-16T02:08:00;10.20;99.90
22623;DHT22;11478;51.094;7.030;2023-05-16T02:10:39;10.10;99.90
22623;DHT22;11478;51.094;7.030;2023-05-16T02:13:06;10.10;99.90
22623;DHT22;11478;51.094;7.030;2023-05-16T02:15:34;10.00;99.90
22623;DHT22;11478;51.094;7.030;2023-05-16T02:18:00;10.00;99.90
22623;DHT22;11478;51.094;7.030;2023-05-16T02:20:28;9.90;99.90
22623;DHT22;11478;51.094;7.030;2023-05-16T02:22:54;9.90;99.90
22623;DHT22;11478;51.094;7.030;2023-05-16T02:25:20;9.90;99.90
22623;DHT22;11478;51.094;7.030;2023-05-16T02:27:46;9.80;99.90
22623;DHT22;11478;51.094;7.030;2023-05-16T02:30:12;9.70;99.90
22623;DHT22;11478;51.094;7.030;2023-05-16T02:32:39;9.70;99.90
22623;DHT22;11478;51.094;7.030;2023-05-16T02:35:05;9.60;99.90
22623;DHT22;11478;51.094;7.030;2023-05-16T02:37:33;9.60;99.90
22623;DHT22;11478;51.094;7.030;2023-05-16T02:39:58;9.50;99.90
22623;DHT22;11478;51.094;7.030;2023-05-16T02:42:25;9.50;99.90
22623;DHT22;11478;51.094;7.030;2023-05-16T02:44:55;9.50;99.90
22623;DHT22;11478;51.094;7.030;2023-05-16T02:47:21;9.40;99.90
22623;DHT22;11478;51.094;7.030;2023-05-16T02:49:47;9.40;99.90
22623;DHT22;11478;51.094;7.030;2023-05-16T02:52:16;9.30;99.90
22623;DHT22;11478;51.094;7.030;2023-05-16T02:54:41;9.30;99.90
22623;DHT22;11478;51.094;7.030;2023-05-16T02:57:09;9.20;99.90
22623;DHT22;11478;51.094;7.030;2023-05-16T02:59:35;9.20;99.90
22623;DHT22;11478;51.094;7.030;2023-05-16T03:02:02;9.20;99.90
22623;DHT22;11478;51.094;7.030;2023-05-16T03:04:28;9.20;99.90
22623;DHT22;11478;51.094;7.030;2023-05-16T03:07:09;9.20;99.90
22623;DHT22;11478;51.094;7.030;2023-05-16T03:09:35;9.20;99.90
22623;DHT22;11478;51.094;7.030;2023-05-16T03:12:01;9.10;99.90
22623;DHT22;11478;51.094;7.030;2023-05-16T03:14:27;9.10;99.90
22623;DHT22;11478;51.094;7.030;2023-05-16T03:16:53;9.10;99.90
22623;DHT22;11478;51.094;7.030;2023-05-16T03:19:19;9.10;99.90
22623;DHT22;11478;51.094;7.030;2023-05-16T03:21:46;9.10;99.90
22623;DHT22;11478;51.094;7.030;2023-05-16T03:24:21;9.10;99.90
22623;DHT22;11478;51.094;7.030;2023-05-16T03:26:47;9.10;99.90
22623;DHT22;11478;51.094;7.030;2023-05-16T03:29:16;9.10;99.90
22623;DHT22;11478;51.094;7.030;2023-05-16T03:31:42;9.10;99.90
22623;DHT22;11478;51.094;7.030;2023-05-16T03:34:15;9.10;99.90
22623;DHT22;11478;51.094;7.030;2023-05-16T03:36:41;9.10;99.90
22623;DHT22;11478;51.094;7.030;2023-05-16T03:39:13;9.10;99.90
22623;DHT22;11478;51.094;7.030;2023-05-16T03:41:39;9.10;99.90
22623;DHT22;11478;51.094;7.030;2023-05-16T03:44:06;9.10;99.90
22623;DHT22;11478;51.094;7.030;2023-05-16T03:46:31;9.10;99.90
22623;DHT22;11478;51.094;7.030;2023-05-16T03:48:58;9.00;99.90
22623;DHT22;11478;51.094;7.030;2023-05-16T03:51:23;9.00;99.90
22623;DHT22;11478;51.094;7.030;2023-05-16T03:53:54;9.00;99.90
22623;DHT22;11478;51.094;7.030;2023-05-16T03:56:19;9.00;99.90
22623;DHT22;11478;51.094;7.030;2023-05-16T03:58:50;9.00;99.90
22623;DHT22;11478;51.094;7.030;2023-05-16T04:01:16;9.00;99.90
22623;DHT22;11478;51.094;7.030;2023-05-16T04:03:58;9.00;99.90
22623;DHT22;11478;51.094;7.030;2023-05-16T04:06:24;9.00;99.90
22623;DHT22;11478;51.094;7.030;2023-05-16T04:08:50;9.00;99.90
22623;DHT22;11478;51.094;7.030;2023-05-16T04:11:16;8.90;99.90
22623;DHT22;11478;51.094;7.030;2023-05-16T04:13:42;8.90;99.90
22623;DHT22;11478;51.094;7.030;2023-05-16T04:16:07;8.90;99.90
22623;DHT22;11478;51.094;7.030;2023-05-16T04:18:34;8.80;99.90
22623;DHT22;11478;51.094;7.030;2023-05-16T04:20:59;8.80;99.90
22623;DHT22;11478;51.094;7.030;2023-05-16T04:23:28;8.80;99.90
22623;DHT22;11478;51.094;7.030;2023-05-16T04:25:54;8.80;99.90
22623;DHT22;11478;51.094;7.030;2023-05-16T04:28:25;8.70;99.90
22623;DHT22;11478;51.094;7.030;2023-05-16T04:30:51;8.70;99.90
22623;DHT22;11478;51.094;7.030;2023-05-16T04:33:20;8.70;99.90
22623;DHT22;11478;51.094;7.030;2023-05-16T04:35:46;8.60;99.90
22623;DHT22;11478;51.094;7.030;2023-05-16T04:38:13;8.60;99.90
22623;DHT22;11478;51.094;7.030;2023-05-16T04:40:38;8.60;99.90
22623;DHT22;11478;51.094;7.030;2023-05-16T04:43:08;8.60;99.90
22623;DHT22;11478;51.094;7.030;2023-05-16T04:45:34;8.50;99.90
22623;DHT22;11478;51.094;7.030;2023-05-16T04:48:00;8.50;99.90
22623;DHT22;11478;51.094;7.030;2023-05-16T04:50:26;8.50;99.90
22623;DHT22;11478;51.094;7.030;2023-05-16T04:52:52;8.50;99.90
22623;DHT22;11478;51.094;7.030;2023-05-16T04:55:18;8.50;99.90
22623;DHT22;11478;51.094;7.030;2023-05-16T04:57:44;8.50;99.90
22623;DHT22;11478;51.094;7.030;2023-05-16T05:00:10;8.40;99.90
22623;DHT22;11478;51.094;7.030;2023-05-16T05:02:38;8.40;99.90
22623;DHT22;11478;51.094;7.030;2023-05-16T05:05:04;8.30;99.90
22623;DHT22;11478;51.094;7.030;2023-05-16T05:07:33;8.30;99.90
22623;DHT22;11478;51.094;7.030;2023-05-16T05:09:59;8.30;99.90
22623;DHT22;11478;51.094;7.030;2023-05-16T05:12:25;8.20;99.90
22623;DHT22;11478;51.094;7.030;2023-05-16T05:14:53;8.20;99.90
22623;DHT22;11478;51.094;7.030;2023-05-16T05:17:20;8.20;99.90
22623;DHT22;11478;51.094;7.030;2023-05-16T05:19:46;8.10;99.90
22623;DHT22;11478;51.094;7.030;2023-05-16T05:22:13;8.10;99.90
22623;DHT22;11478;51.094;7.030;2023-05-16T05:24:44;8.10;99.90
22623;DHT22;11478;51.094;7.030;2023-05-16T05:27:10;8.10;99.90
22623;DHT22;11478;51.094;7.030;2023-05-16T05:29:39;8.10;99.90
22623;DHT22;11478;51.094;7.030;2023-05-16T05:32:05;8.20;99.90
22623;DHT22;11478;51.094;7.030;2023-05-16T05:34:34;8.20;99.90
22623;DHT22;11478;51.094;7.030;2023-05-16T05:37:00;8.30;99.90
22623;DHT22;11478;51.094;7.030;2023-05-16T05:39:29;8.30;99.90
22623;DHT22;11478;51.094;7.030;2023-05-16T05:41:55;8.40;99.90
22623;DHT22;11478;51.094;7.030;2023-05-16T05:44:45;8.30;99.90
22623;DHT22;11478;51.094;7.030;2023-05-16T05:47:11;8.40;99.90
22623;DHT22;11478;51.094;7.030;2023-05-16T05:49:46;8.40;99.90
22623;DHT22;11478;51.094;7.030;2023-05-16T05:52:12;8.30;99.90
22623;DHT22;11478;51.094;7.030;2023-05-16T05:54:40;8.40;99.90
22623;DHT22;11478;51.094;7.030;2023-05-16T05:57:06;8.30;99.90
22623;DHT22;11478;51.094;7.030;2023-05-16T05:59:34;8.30;99.90
22623;DHT22;11478;51.094;7.030;2023-05-16T06:02:00;8.30;99.90
22623;DHT22;11478;51.094;7.030;2023-05-16T06:04:26;8.30;99.90
22623;DHT22;11478;51.094;7.030;2023-05-16T06:06:52;8.40;99.90
22623;DHT22;11478;51.094;7.030;2023-05-16T06:09:21;8.50;99.90
22623;DHT22;11478;51.094;7.030;2023-05-16T06:11:47;8.60;99.90
22623;DHT22;11478;51.094;7.030;2023-05-16T06:14:14;8.60;99.90
22623;DHT22;11478;51.094;7.030;2023-05-16T06:16:42;8.70;99.90
22623;DHT22;11478;51.094;7.030;2023-05-16T06:19:10;8.90;99.90
22623;DHT22;11478;51.094;7.030;2023-05-16T06:21:47;9.10;99.90
22623;DHT22;11478;51.094;7.030;2023-05-16T06:24:14;9.30;99.90
22623;DHT22;11478;51.094;7.030;2023-05-16T06:26:40;9.50;99.90
22623;DHT22;11478;51.094;7.030;2023-05-16T06:29:15;9.50;99.90
22623;DHT22;11478;51.094;7.030;2023-05-16T06:31:41;9.50;99.90
22623;DHT22;11478;51.094;7.030;2023-05-16T06:34:07;9.50;99.90
22623;DHT22;11478;51.094;7.030;2023-05-16T06:36:33;9.50;99.90
22623;DHT22;11478;51.094;7.030;2023-05-16T06:38:59;9.50;99.90
22623;DHT22;11478;51.094;7.030;2023-05-16T06:41:46;9.50;99.90
22623;DHT22;11478;51.094;7.030;2023-05-16T06:44:18;9.50;99.90
22623;DHT22;11478;51.094;7.030;2023-05-16T06:47:12;9.60;99.90
22623;DHT22;11478;51.094;7.030;2023-05-16T06:49:38;9.70;99.90
22623;DHT22;11478;51.094;7.030;2023-05-16T06:52:12;9.70;99.90
22623;DHT22;11478;51.094;7.030;2023-05-16T06:54:41;9.70;99.90
22623;DHT22;11478;51.094;7.030;2023-05-16T06:57:07;9.80;99.90
22623;DHT22;11478;51.094;7.030;2023-05-16T06:59:34;9.70;99.90
22623;DHT22;11478;51.094;7.030;2023-05-16T07:02:10;9.60;99.90
22623;DHT22;11478;51.094;7.030;2023-05-16T07:04:49;9.70;99.90
22623;DHT22;11478;51.094;7.030;2023-05-16T07:07:18;9.70;99.90
22623;DHT22;11478;51.094;7.030;2023-05-16T07:09:46;9.70;99.90
22623;DHT22;11478;51.094;7.030;2023-05-16T07:12:12;9.70;99.90
22623;DHT22;11478;51.094;7.030;2023-05-16T07:14:38;9.70;99.90
22623;DHT22;11478;51.094;7.030;2023-05-16T07:17:05;9.60;99.90
22623;DHT22;11478;51.094;7.030;2023-05-16T07:19:48;9.50;99.90
22623;DHT22;11478;51.094;7.030;2023-05-16T07:22:14;9.40;99.90
22623;DHT22;11478;51.094;7.030;2023-05-16T07:24:40;9.40;99.90
22623;DHT22;11478;51.094;7.030;2023-05-16T07:27:06;9.30;99.90
22623;DHT22;11478;51.094;7.030;2023-05-16T07:29:49;9.40;99.90
22623;DHT22;11478;51.094;7.030;2023-05-16T07:32:18;9.40;99.90
22623;DHT22;11478;51.094;7.030;2023-05-16T07:34:50;9.40;99.90
22623;DHT22;11478;51.094;7.030;2023-05-16T07:37:19;9.40;99.90
22623;DHT22;11478;51.094;7.030;2023-05-16T07:39:46;9.40;99.90
22623;DHT22;11478;51.094;7.030;2023-05-16T07:42:28;9.50;99.90
22623;DHT22;11478;51.094;7.030;2023-05-16T07:44:54;9.60;99.90
22623;DHT22;11478;51.094;7.030;2023-05-16T07:47:25;9.80;99.90
22623;DHT22;11478;51.094;7.030;2023-05-16T07:49:54;9.90;99.90
22623;DHT22;11478;51.094;7.030;2023-05-16T07:52:21;10.00;99.90
22623;DHT22;11478;51.094;7.030;2023-05-16T07:54:48;10.20;99.90
22623;DHT22;11478;51.094;7.030;2023-05-16T07:57:19;10.40;99.90
22623;DHT22;11478;51.094;7.030;2023-05-16T07:59:57;10.60;99.90
22623;DHT22;11478;51.094;7.030;2023-05-16T08:02:23;10.70;99.90
22623;DHT22;11478;51.094;7.030;2023-05-16T08:05:14;10.80;99.90
22623;DHT22;11478;51.094;7.030;2023-05-16T08:07:40;10.70;99.90
22623;DHT22;11478;51.094;7.030;2023-05-16T08:10:07;10.50;99.90
22623;DHT22;11478;51.094;7.030;2023-05-16T08:12:33;10.40;99.90
22623;DHT22;11478;51.094;7.030;2023-05-16T08:15:16;10.50;99.90
22623;DHT22;11478;51.094;7.030;2023-05-16T08:17:41;10.60;99.90
22623;DHT22;11478;51.094;7.030;2023-05-16T08:20:08;10.50;99.90
22623;DHT22;11478;51.094;7.030;2023-05-16T08:22:34;10.50;99.90
22623;DHT22;11478;51.094;7.030;2023-05-16T08:25:03;10.40;99.90
22623;DHT22;11478;51.094;7.030;2023-05-16T08:27:29;10.50;99.90
22623;DHT22;11478;51.094;7.030;2023-05-16T08:29:59;10.50;99.90
22623;DHT22;11478;51.094;7.030;2023-05-16T08:32:26;10.50;99.90
22623;DHT22;11478;51.094;7.030;2023-05-16T08:34:53;10.60;99.90
22623;DHT22;11478;51.094;7.030;2023-05-16T08:37:19;10.50;99.90
22623;DHT22;11478;51.094;7.030;2023-05-16T08:39:46;10.50;99.90
22623;DHT22;11478;51.094;7.030;2023-05-16T08:42:12;10.50;99.90
22623;DHT22;11478;51.094;7.030;2023-05-16T08:44:38;10.50;99.90
22623;DHT22;11478;51.094;7.030;2023-05-16T08:47:24;10.60;99.90
22623;DHT22;11478;51.094;7.030;2023-05-16T08:49:53;10.90;99.90
22623;DHT22;11478;51.094;7.030;2023-05-16T08:52:36;11.30;99.90
22623;DHT22;11478;51.094;7.030;2023-05-16T08:55:06;11.50;99.90
22623;DHT22;11478;51.094;7.030;2023-05-16T08:57:36;11.60;99.90
22623;DHT22;11478;51.094;7.030;2023-05-16T09:00:07;11.60;99.90
22623;DHT22;11478;51.094;7.030;2023-05-16T09:02:38;11.70;99.90
22623;DHT22;11478;51.094;7.030;2023-05-16T09:05:08;11.60;99.90
22623;DHT22;11478;51.094;7.030;2023-05-16T09:07:35;11.50;99.90
22623;DHT22;11478;51.094;7.030;2023-05-16T09:10:08;11.30;99.90
22623;DHT22;11478;51.094;7.030;2023-05-16T09:12:34;11.10;99.90
22623;DHT22;11478;51.094;7.030;2023-05-16T09:15:05;10.90;99.90
22623;DHT22;11478;51.094;7.030;2023-05-16T09:20:26;10.70;99.90
22623;DHT22;11478;51.094;7.030;2023-05-16T09:22:55;10.70;99.90
22623;DHT22;11478;51.094;7.030;2023-05-16T09:25:28;10.80;99.90
22623;DHT22;11478;51.094;7.030;2023-05-16T09:27:55;10.90;99.90
22623;DHT22;11478;51.094;7.030;2023-05-16T09:32:57;11.10;99.90
22623;DHT22;11478;51.094;7.030;2023-05-16T09:35:23;11.30;99.90
22623;DHT22;11478;51.094;7.030;2023-05-16T09:37:53;11.50;99.90
22623;DHT22;11478;51.094;7.030;2023-05-16T09:40:22;11.60;99.90
22623;DHT22;11478;51.094;7.030;2023-05-16T09:43:03;11.80;99.90
22623;DHT22;11478;51.094;7.030;2023-05-16T09:45:33;11.90;99.90
22623;DHT22;11478;51.094;7.030;2023-05-16T09:48:07;12.00;99.90
22623;DHT22;11478;51.094;7.030;2023-05-16T09:50:34;12.10;99.90
22623;DHT22;11478;51.094;7.030;2023-05-16T09:53:06;12.20;99.90
22623;DHT22;11478;51.094;7.030;2023-05-16T09:55:33;12.30;99.90
22623;DHT22;11478;51.094;7.030;2023-05-16T09:57:59;12.40;99.90
22623;DHT22;11478;51.094;7.030;2023-05-16T10:00:30;12.60;99.90
22623;DHT22;11478;51.094;7.030;2023-05-16T10:02:58;12.70;99.90
22623;DHT22;11478;51.094;7.030;2023-05-16T10:05:29;12.80;99.90
22623;DHT22;11478;51.094;7.030;2023-05-16T10:08:03;12.70;99.90
22623;DHT22;11478;51.094;7.030;2023-05-16T10:10:34;12.60;99.90
22623;DHT22;11478;51.094;7.030;2023-05-16T10:13:13;12.60;99.90
22623;DHT22;11478;51.094;7.030;2023-05-16T10:15:39;12.70;99.90
22623;DHT22;11478;51.094;7.030;2023-05-16T10:18:16;12.80;99.90
22623;DHT22;11478;51.094;7.030;2023-05-16T10:20:48;12.90;99.90
22623;DHT22;11478;51.094;7.030;2023-05-16T10:23:17;12.80;99.90
22623;DHT22;11478;51.094;7.030;2023-05-16T10:25:45;12.60;99.90
22623;DHT22;11478;51.094;7.030;2023-05-16T10:28:14;12.50;99.90
22623;DHT22;11478;51.094;7.030;2023-05-16T10:30:43;12.40;99.90
22623;DHT22;11478;51.094;7.030;2023-05-16T10:33:12;12.30;99.90
22623;DHT22;11478;51.094;7.030;2023-05-16T10:35:39;12.30;99.90
22623;DHT22;11478;51.094;7.030;2023-05-16T10:38:25;12.40;99.90
22623;DHT22;11478;51.094;7.030;2023-05-16T10:40:58;12.60;99.90
22623;DHT22;11478;51.094;7.030;2023-05-16T10:43:26;12.80;99.90
22623;DHT22;11478;51.094;7.030;2023-05-16T10:46:11;12.90;99.90
22623;DHT22;11478;51.094;7.030;2023-05-16T10:48:40;12.80;99.90
22623;DHT22;11478;51.094;7.030;2023-05-16T10:54:07;12.90;99.90
22623;DHT22;11478;51.094;7.030;2023-05-16T10:56:40;13.00;99.90
22623;DHT22;11478;51.094;7.030;2023-05-16T10:59:24;13.10;99.90
22623;DHT22;11478;51.094;7.030;2023-05-16T11:01:55;13.20;99.90
22623;DHT22;11478;51.094;7.030;2023-05-16T11:04:44;13.20;99.90
22623;DHT22;11478;51.094;7.030;2023-05-16T11:07:10;13.20;99.90
22623;DHT22;11478;51.094;7.030;2023-05-16T11:09:43;13.30;99.90
22623;DHT22;11478;51.094;7.030;2023-05-16T11:12:09;13.40;99.90
22623;DHT22;11478;51.094;7.030;2023-05-16T11:17:27;13.80;99.90
22623;DHT22;11478;51.094;7.030;2023-05-16T11:20:06;13.70;99.90
22623;DHT22;11478;51.094;7.030;2023-05-16T11:25:08;13.30;99.90
22623;DHT22;11478;51.094;7.030;2023-05-16T11:27:36;13.10;99.90
22623;DHT22;11478;51.094;7.030;2023-05-16T11:40:25;12.40;99.90
22623;DHT22;11478;51.094;7.030;2023-05-16T11:42:52;12.40;99.90
22623;DHT22;11478;51.094;7.030;2023-05-16T11:45:21;12.40;99.90
22623;DHT22;11478;51.094;7.030;2023-05-16T11:47:51;12.40;99.90
22623;DHT22;11478;51.094;7.030;2023-05-16T11:50:18;12.50;99.90
22623;DHT22;11478;51.094;7.030;2023-05-16T11:52:47;12.50;99.90
22623;DHT22;11478;51.094;7.030;2023-05-16T11:55:13;12.70;99.90
22623;DHT22;11478;51.094;7.030;2023-05-16T11:57:40;12.80;99.90
22623;DHT22;11478;51.094;7.030;2023-05-16T12:00:33;13.00;99.90
22623;DHT22;11478;51.094;7.030;2023-05-16T12:03:01;13.20;99.90
22623;DHT22;11478;51.094;7.030;2023-05-16T12:05:29;13.30;99.90
22623;DHT22;11478;51.094;7.030;2023-05-16T12:07:57;13.40;99.90
22623;DHT22;11478;51.094;7.030;2023-05-16T12:10:27;13.40;99.90
22623;DHT22;11478;51.094;7.030;2023-05-16T12:12:53;13.30;99.90
22623;DHT22;11478;51.094;7.030;2023-05-16T12:15:22;13.40;99.90
22623;DHT22;11478;51.094;7.030;2023-05-16T12:17:48;13.40;99.90
22623;DHT22;11478;51.094;7.030;2023-05-16T12:20:21;13.40;99.90
22623;DHT22;11478;51.094;7.030;2023-05-16T12:22:47;13.50;99.90
22623;DHT22;11478;51.094;7.030;2023-05-16T12:25:35;13.50;99.90
22623;DHT22;11478;51.094;7.030;2023-05-16T12:28:03;13.50;99.90
22623;DHT22;11478;51.094;7.030;2023-05-16T12:30:31;13.50;99.90
22623;DHT22;11478;51.094;7.030;2023-05-16T12:33:02;13.30;99.90
22623;DHT22;11478;51.094;7.030;2023-05-16T12:35:30;13.30;99.90
22623;DHT22;11478;51.094;7.030;2023-05-16T12:37:56;13.20;99.90
22623;DHT22;11478;51.094;7.030;2023-05-16T12:40:28;13.20;99.90
22623;DHT22;11478;51.094;7.030;2023-05-16T12:42:54;13.00;99.90
22623;DHT22;11478;51.094;7.030;2023-05-16T12:45:22;13.00;99.90
22623;DHT22;11478;51.094;7.030;2023-05-16T12:47:49;13.00;99.90
22623;DHT22;11478;51.094;7.030;2023-05-16T12:50:19;12.90;99.90
22623;DHT22;11478;51.094;7.030;2023-05-16T12:52:53;12.90;99.90
22623;DHT22;11478;51.094;7.030;2023-05-16T12:55:23;12.90;99.90
22623;DHT22;11478;51.094;7.030;2023-05-16T12:58:05;12.90;99.90
22623;DHT22;11478;51.094;7.030;2023-05-16T13:00:34;12.90;99.90
22623;DHT22;11478;51.094;7.030;2023-05-16T13:03:05;12.90;99.90
22623;DHT22;11478;51.094;7.030;2023-05-16T13:08:31;13.20;99.90
22623;DHT22;11478;51.094;7.030;2023-05-16T13:10:57;13.30;99.90
22623;DHT22;11478;51.094;7.030;2023-05-16T13:13:25;13.40;99.90
22623;DHT22;11478;51.094;7.030;2023-05-16T13:15:51;13.50;99.90
22623;DHT22;11478;51.094;7.030;2023-05-16T13:18:17;13.50;99.90
22623;DHT22;11478;51.094;7.030;2023-05-16T13:20:43;13.60;99.90
22623;DHT22;11478;51.094;7.030;2023-05-16T13:23:10;13.70;99.90
22623;DHT22;11478;51.094;7.030;2023-05-16T13:25:36;13.80;99.90
22623;DHT22;11478;51.094;7.030;2023-05-16T13:28:19;13.90;99.90
22623;DHT22;11478;51.094;7.030;2023-05-16T13:30:45;14.00;99.90
22623;DHT22;11478;51.094;7.030;2023-05-16T13:33:12;14.10;99.90
22623;DHT22;11478;51.094;7.030;2023-05-16T13:35:38;14.20;99.90
22623;DHT22;11478;51.094;7.030;2023-05-16T13:38:10;14.30;99.90
22623;DHT22;11478;51.094;7.030;2023-05-16T13:40:36;14.40;99.90
22623;DHT22;11478;51.094;7.030;2023-05-16T13:43:17;14.40;99.90
22623;DHT22;11478;51.094;7.030;2023-05-16T13:45:44;14.50;99.90
22623;DHT22;11478;51.094;7.030;2023-05-16T13:48:11;14.40;99.90
22623;DHT22;11478;51.094;7.030;2023-05-16T13:50:37;14.40;99.90
22623;DHT22;11478;51.094;7.030;2023-05-16T13:53:07;14.30;99.90
22623;DHT22;11478;51.094;7.030;2023-05-16T13:55:33;14.30;99.90
22623;DHT22;11478;51.094;7.030;2023-05-16T13:58:04;14.40;99.90
22623;DHT22;11478;51.094;7.030;2023-05-16T14:00:30;14.60;99.90
22623;DHT22;11478;51.094;7.030;2023-05-16T14:03:02;14.80;99.90
22623;DHT22;11478;51.094;7.030;2023-05-16T14:05:29;14.80;99.90
22623;DHT22;11478;51.094;7.030;2023-05-16T14:08:01;14.80;99.90
22623;DHT22;11478;51.094;7.030;2023-05-16T14:10:33;14.60;99.90
22623;DHT22;11478;51.094;7.030;2023-05-16T14:12:59;14.40;99.90
22623;DHT22;11478;51.094;7.030;2023-05-16T14:15:26;14.40;99.90
22623;DHT22;11478;51.094;7.030;2023-05-16T14:17:52;14.40;99.90
22623;DHT22;11478;51.094;7.030;2023-05-16T14:20:22;14.50;99.90
22623;DHT22;11478;51.094;7.030;2023-05-16T14:22:48;14.50;99.90
22623;DHT22;11478;51.094;7.030;2023-05-16T14:25:22;14.40;99.90
22623;DHT22;11478;51.094;7.030;2023-05-16T14:27:48;14.30;99.90
22623;DHT22;11478;51.094;7.030;2023-05-16T14:30:49;14.20;99.90
22623;DHT22;11478;51.094;7.030;2023-05-16T14:33:15;14.20;99.90
22623;DHT22;11478;51.094;7.030;2023-05-16T14:38:47;14.20;99.90
22623;DHT22;11478;51.094;7.030;2023-05-16T14:41:22;14.20;99.90
22623;DHT22;11478;51.094;7.030;2023-05-16T14:43:47;14.30;99.90
22623;DHT22;11478;51.094;7.030;2023-05-16T14:46:33;14.30;99.90
22623;DHT22;11478;51.094;7.030;2023-05-16T14:49:02;14.40;99.90
22623;DHT22;11478;51.094;7.030;2023-05-16T14:51:32;14.40;99.90
22623;DHT22;11478;51.094;7.030;2023-05-16T14:53:58;14.60;99.90
22623;DHT22;11478;51.094;7.030;2023-05-16T14:56:24;14.80;99.90
22623;DHT22;11478;51.094;7.030;2023-05-16T14:58:52;15.00;99.90
22623;DHT22;11478;51.094;7.030;2023-05-16T15:01:18;15.10;99.90
22623;DHT22;11478;51.094;7.030;2023-05-16T15:03:44;15.10;99.90
22623;DHT22;11478;51.094;7.030;2023-05-16T15:06:11;15.00;99.90
22623;DHT22;11478;51.094;7.030;2023-05-16T15:08:52;14.80;99.90
22623;DHT22;11478;51.094;7.030;2023-05-16T15:11:18;14.70;99.90
22623;DHT22;11478;51.094;7.030;2023-05-16T15:13:45;14.70;99.90
22623;DHT22;11478;51.094;7.030;2023-05-16T15:16:11;14.50;99.90
22623;DHT22;11478;51.094;7.030;2023-05-16T15:18:38;14.40;99.90
22623;DHT22;11478;51.094;7.030;2023-05-16T15:21:05;14.30;99.90
22623;DHT22;11478;51.094;7.030;2023-05-16T15:23:34;14.20;99.90
22623;DHT22;11478;51.094;7.030;2023-05-16T15:26:03;14.10;99.90
22623;DHT22;11478;51.094;7.030;2023-05-16T15:28:38;14.00;99.90
22623;DHT22;11478;51.094;7.030;2023-05-16T15:31:04;14.00;99.90
22623;DHT22;11478;51.094;7.030;2023-05-16T15:33:38;13.90;99.90
22623;DHT22;11478;51.094;7.030;2023-05-16T15:36:08;13.90;99.90
22623;DHT22;11478;51.094;7.030;2023-05-16T15:38:36;14.00;99.90
22623;DHT22;11478;51.094;7.030;2023-05-16T15:41:03;14.00;99.90
22623;DHT22;11478;51.094;7.030;2023-05-16T15:43:35;14.00;99.90
22623;DHT22;11478;51.094;7.030;2023-05-16T15:46:01;14.00;99.90
22623;DHT22;11478;51.094;7.030;2023-05-16T15:48:37;13.90;99.90
22623;DHT22;11478;51.094;7.030;2023-05-16T15:51:11;13.90;99.90
22623;DHT22;11478;51.094;7.030;2023-05-16T15:53:42;13.80;99.90
22623;DHT22;11478;51.094;7.030;2023-05-16T15:56:19;13.70;99.90
22623;DHT22;11478;51.094;7.030;2023-05-16T15:58:50;13.60;99.90
22623;DHT22;11478;51.094;7.030;2023-05-16T16:01:15;13.50;99.90
22623;DHT22;11478;51.094;7.030;2023-05-16T16:03:43;13.50;99.90
22623;DHT22;11478;51.094;7.030;2023-05-16T16:06:09;13.40;99.90
22623;DHT22;11478;51.094;7.030;2023-05-16T16:08:35;13.50;99.90
22623;DHT22;11478;51.094;7.030;2023-05-16T16:11:05;13.50;99.90
22623;DHT22;11478;51.094;7.030;2023-05-16T16:13:32;13.50;99.90
22623;DHT22;11478;51.094;7.030;2023-05-16T16:16:08;13.50;99.90
22623;DHT22;11478;51.094;7.030;2023-05-16T16:18:34;13.50;99.90
22623;DHT22;11478;51.094;7.030;2023-05-16T16:21:09;13.50;99.90
22623;DHT22;11478;51.094;7.030;2023-05-16T16:23:38;13.50;99.90
22623;DHT22;11478;51.094;7.030;2023-05-16T16:26:22;13.50;99.90
22623;DHT22;11478;51.094;7.030;2023-05-16T16:28:48;13.50;99.90
22623;DHT22;11478;51.094;7.030;2023-05-16T16:31:20;13.50;99.90
22623;DHT22;11478;51.094;7.030;2023-05-16T16:33:46;13.40;99.90
22623;DHT22;11478;51.094;7.030;2023-05-16T16:36:16;13.40;99.90